UAL22 EIDW-KEWR
Flight info
| Callsign | UAL22 |
|---|---|
| Flight time | N/A |
| Altitude | 36000 |
| Route | PELIG2J PELIG DCT DOGAL/M082F380 NATD NEEKO/N0471F380 N622E TAFFY/N0466F400 DCT KJOHN DCT HANAA FLOSI4 |
| Aircraft | B772/H-SDE2E3FGHIJ5LORVWXY/LB1D1 |
Departure
| Time | 2026-05-05 08:22 |
|---|---|
| Airport | Dublin Airport (EIDW) |
Arrival
| Time | N/A |
|---|---|
| Airport | Newark Liberty International Airport (KEWR) |
| Time | Latitude | Longitude | Altitude | Speed | Heading |
|---|---|---|---|---|---|
| 2026-05-05 07:54 | 53.42339 | -6.24562 | 216 ft | 0 kts | 135° |
| 2026-05-05 08:10 | 53.42340 | -6.24563 | 216 ft | 2 kts | 135° |
| 2026-05-05 08:10 | 53.42358 | -6.24591 | 219 ft | 4 kts | 142° |
| 2026-05-05 08:10 | 53.42378 | -6.24615 | 221 ft | 4 kts | 152° |
| 2026-05-05 08:11 | 53.42402 | -6.24631 | 220 ft | 4 kts | 173° |
| 2026-05-05 08:11 | 53.42423 | -6.24627 | 218 ft | 4 kts | 230° |
| 2026-05-05 08:11 | 53.42426 | -6.24621 | 218 ft | 0 kts | 243° |
| 2026-05-05 08:14 | 53.42423 | -6.24632 | 218 ft | 2 kts | 243° |
| 2026-05-05 08:14 | 53.42415 | -6.24654 | 224 ft | 2 kts | 239° |
| 2026-05-05 08:14 | 53.42407 | -6.24675 | 222 ft | 2 kts | 235° |
| 2026-05-05 08:15 | 53.42392 | -6.24709 | 221 ft | 7 kts | 231° |
| 2026-05-05 08:15 | 53.42372 | -6.24822 | 221 ft | 13 kts | 290° |
| 2026-05-05 08:15 | 53.42461 | -6.24932 | 223 ft | 19 kts | 332° |
| 2026-05-05 08:15 | 53.42582 | -6.25020 | 223 ft | 19 kts | 336° |
| 2026-05-05 08:16 | 53.42699 | -6.25126 | 220 ft | 19 kts | 312° |
| 2026-05-05 08:16 | 53.42806 | -6.25250 | 223 ft | 19 kts | 337° |
| 2026-05-05 08:16 | 53.42927 | -6.25338 | 222 ft | 19 kts | 337° |
| 2026-05-05 08:16 | 53.43046 | -6.25423 | 218 ft | 19 kts | 337° |
| 2026-05-05 08:17 | 53.43166 | -6.25511 | 221 ft | 19 kts | 336° |
| 2026-05-05 08:17 | 53.43282 | -6.25597 | 223 ft | 19 kts | 336° |
| 2026-05-05 08:17 | 53.43399 | -6.25590 | 222 ft | 19 kts | 63° |
| 2026-05-05 08:17 | 53.43397 | -6.25371 | 215 ft | 19 kts | 94° |
| 2026-05-05 08:18 | 53.43385 | -6.25155 | 222 ft | 19 kts | 95° |
| 2026-05-05 08:18 | 53.43373 | -6.24935 | 220 ft | 19 kts | 95° |
| 2026-05-05 08:18 | 53.43361 | -6.24715 | 222 ft | 19 kts | 95° |
| 2026-05-05 08:18 | 53.43349 | -6.24496 | 216 ft | 19 kts | 96° |
| 2026-05-05 08:19 | 53.43337 | -6.24276 | 216 ft | 19 kts | 95° |
| 2026-05-05 08:19 | 53.43325 | -6.24057 | 221 ft | 19 kts | 95° |
| 2026-05-05 08:19 | 53.43365 | -6.23873 | 220 ft | 19 kts | 20° |
| 2026-05-05 08:19 | 53.43423 | -6.23855 | 217 ft | 8 kts | 6° |
| 2026-05-05 08:20 | 53.43472 | -6.23903 | 220 ft | 9 kts | 300° |
| 2026-05-05 08:20 | 53.43490 | -6.24003 | 221 ft | 9 kts | 275° |
| 2026-05-05 08:20 | 53.43494 | -6.24063 | 217 ft | 0 kts | 278° |
| 2026-05-05 08:21 | 53.43500 | -6.24124 | 222 ft | 18 kts | 278° |
| 2026-05-05 08:21 | 53.43530 | -6.24635 | 225 ft | 79 kts | 275° |
| 2026-05-05 08:21 | 53.43602 | -6.25969 | 223 ft | 145 kts | 276° |
| 2026-05-05 08:21 | 53.43729 | -6.27855 | 461 ft | 165 kts | 278° |
| 2026-05-05 08:22 | 53.43847 | -6.29748 | 933 ft | 173 kts | 290° |
| 2026-05-05 08:22 | 53.44583 | -6.31414 | 1202 ft | 187 kts | 327° |
| 2026-05-05 08:22 | 53.45634 | -6.32620 | 1925 ft | 180 kts | 315° |
| 2026-05-05 08:22 | 53.46423 | -6.34358 | 2258 ft | 196 kts | 306° |
| 2026-05-05 08:23 | 53.47226 | -6.36352 | 2491 ft | 219 kts | 304° |
| 2026-05-05 08:23 | 53.48064 | -6.38560 | 3137 ft | 218 kts | 304° |
| 2026-05-05 08:23 | 53.48859 | -6.40608 | 4121 ft | 206 kts | 306° |
| 2026-05-05 08:23 | 53.49709 | -6.42676 | 4447 ft | 227 kts | 307° |
| 2026-05-05 08:24 | 53.50649 | -6.44948 | 4774 ft | 245 kts | 301° |
| 2026-05-05 08:24 | 53.51055 | -6.47770 | 5328 ft | 257 kts | 268° |
| 2026-05-05 08:24 | 53.50557 | -6.50688 | 5890 ft | 266 kts | 248° |
| 2026-05-05 08:24 | 53.49682 | -6.53427 | 6545 ft | 271 kts | 243° |
| 2026-05-05 08:25 | 53.48785 | -6.56222 | 7180 ft | 271 kts | 244° |
| 2026-05-05 08:25 | 53.47914 | -6.59054 | 7792 ft | 275 kts | 246° |
| 2026-05-05 08:25 | 53.47066 | -6.61920 | 8532 ft | 274 kts | 245° |
| 2026-05-05 08:25 | 53.46169 | -6.64747 | 8968 ft | 275 kts | 241° |
| 2026-05-05 08:26 | 53.45142 | -6.67511 | 9592 ft | 278 kts | 239° |
| 2026-05-05 08:26 | 53.44079 | -6.70253 | 10180 ft | 284 kts | 239° |
| 2026-05-05 08:26 | 53.42976 | -6.73113 | 10495 ft | 304 kts | 239° |
| 2026-05-05 08:26 | 53.41791 | -6.76216 | 10689 ft | 328 kts | 239° |
| 2026-05-05 08:27 | 53.40519 | -6.79562 | 10864 ft | 352 kts | 239° |
| 2026-05-05 08:27 | 53.39194 | -6.83054 | 11368 ft | 365 kts | 239° |
| 2026-05-05 08:27 | 53.37812 | -6.86693 | 12083 ft | 374 kts | 239° |
| 2026-05-05 08:27 | 53.36408 | -6.90391 | 12997 ft | 378 kts | 239° |
| 2026-05-05 08:28 | 53.34989 | -6.94125 | 13953 ft | 382 kts | 239° |
| 2026-05-05 08:28 | 53.33554 | -6.97901 | 14804 ft | 386 kts | 239° |
| 2026-05-05 08:28 | 53.32104 | -7.01709 | 15678 ft | 390 kts | 239° |
| 2026-05-05 08:28 | 53.30639 | -7.05553 | 16536 ft | 394 kts | 239° |
| 2026-05-05 08:29 | 53.29158 | -7.09433 | 17374 ft | 398 kts | 238° |
| 2026-05-05 08:29 | 53.27660 | -7.13352 | 18232 ft | 402 kts | 238° |
| 2026-05-05 08:29 | 53.26147 | -7.17305 | 18982 ft | 406 kts | 238° |
| 2026-05-05 08:30 | 53.23071 | -7.25323 | 20474 ft | 413 kts | 238° |
| 2026-05-05 08:30 | 53.21555 | -7.29386 | 21136 ft | 412 kts | 243° |
| 2026-05-05 08:30 | 53.20668 | -7.33880 | 21606 ft | 418 kts | 263° |
| 2026-05-05 08:30 | 53.20659 | -7.38729 | 22274 ft | 421 kts | 279° |
| 2026-05-05 08:31 | 53.21268 | -7.43495 | 22931 ft | 422 kts | 283° |
| 2026-05-05 08:31 | 53.21953 | -7.48298 | 23537 ft | 428 kts | 283° |
| 2026-05-05 08:31 | 53.22652 | -7.53153 | 24106 ft | 432 kts | 283° |
| 2026-05-05 08:31 | 53.23350 | -7.58039 | 24686 ft | 434 kts | 283° |
| 2026-05-05 08:32 | 53.24043 | -7.62959 | 25262 ft | 437 kts | 282° |
| 2026-05-05 08:32 | 53.24732 | -7.67920 | 25796 ft | 440 kts | 282° |
| 2026-05-05 08:32 | 53.25418 | -7.72926 | 26320 ft | 443 kts | 282° |
| 2026-05-05 08:32 | 53.26101 | -7.77963 | 26835 ft | 447 kts | 282° |
| 2026-05-05 08:33 | 53.26786 | -7.83043 | 27352 ft | 450 kts | 282° |
| 2026-05-05 08:33 | 53.27471 | -7.88157 | 27858 ft | 453 kts | 282° |
| 2026-05-05 08:33 | 53.28158 | -7.93305 | 28335 ft | 456 kts | 281° |
| 2026-05-05 08:33 | 53.28849 | -7.98508 | 28796 ft | 458 kts | 281° |
| 2026-05-05 08:34 | 53.29531 | -8.03656 | 29240 ft | 461 kts | 281° |
| 2026-05-05 08:34 | 53.30233 | -8.08977 | 29668 ft | 464 kts | 281° |
| 2026-05-05 08:34 | 53.30928 | -8.14257 | 30151 ft | 465 kts | 281° |
| 2026-05-05 08:34 | 53.31618 | -8.19519 | 30655 ft | 463 kts | 281° |
| 2026-05-05 08:35 | 53.32303 | -8.24764 | 31164 ft | 461 kts | 281° |
| 2026-05-05 08:35 | 53.32976 | -8.29931 | 31604 ft | 460 kts | 282° |
| 2026-05-05 08:35 | 53.33664 | -8.35238 | 32041 ft | 460 kts | 282° |
| 2026-05-05 08:35 | 53.34330 | -8.40394 | 32482 ft | 459 kts | 282° |
| 2026-05-05 08:36 | 53.35000 | -8.45598 | 32944 ft | 458 kts | 282° |
| 2026-05-05 08:36 | 53.35667 | -8.50801 | 33375 ft | 457 kts | 282° |
| 2026-05-05 08:36 | 53.36331 | -8.55999 | 33799 ft | 456 kts | 282° |
| 2026-05-05 08:36 | 53.36991 | -8.61185 | 34199 ft | 455 kts | 282° |
| 2026-05-05 08:37 | 53.37649 | -8.66369 | 34508 ft | 455 kts | 282° |
| 2026-05-05 08:37 | 53.38304 | -8.71556 | 34795 ft | 455 kts | 282° |
| 2026-05-05 08:37 | 53.38957 | -8.76742 | 35067 ft | 456 kts | 282° |
| 2026-05-05 08:37 | 53.39609 | -8.81946 | 35313 ft | 457 kts | 282° |
| 2026-05-05 08:38 | 53.40260 | -8.87160 | 35574 ft | 458 kts | 282° |
| 2026-05-05 08:38 | 53.40909 | -8.92374 | 35871 ft | 457 kts | 282° |
| 2026-05-05 08:38 | 53.41558 | -8.97605 | 36045 ft | 460 kts | 282° |
| 2026-05-05 08:39 | 53.42856 | -9.08139 | 36118 ft | 461 kts | 282° |
| 2026-05-05 08:39 | 53.44138 | -9.18618 | 36119 ft | 455 kts | 282° |
| 2026-05-05 08:40 | 53.45399 | -9.29009 | 36115 ft | 454 kts | 282° |
| 2026-05-05 08:40 | 53.46648 | -9.39387 | 36122 ft | 453 kts | 282° |
| 2026-05-05 08:41 | 53.47880 | -9.49699 | 36123 ft | 454 kts | 282° |
| 2026-05-05 08:41 | 53.49115 | -9.60107 | 36127 ft | 455 kts | 282° |
| 2026-05-05 08:42 | 53.50344 | -9.70560 | 36128 ft | 457 kts | 281° |
| 2026-05-05 08:42 | 53.51567 | -9.81045 | 36128 ft | 458 kts | 281° |
| 2026-05-05 08:43 | 53.52784 | -9.91554 | 36137 ft | 458 kts | 281° |
| 2026-05-05 08:43 | 53.53990 | -10.02067 | 36139 ft | 458 kts | 281° |
| 2026-05-05 08:44 | 53.55186 | -10.12576 | 36137 ft | 458 kts | 281° |
| 2026-05-05 08:44 | 53.56375 | -10.23102 | 36137 ft | 457 kts | 281° |
| 2026-05-05 08:45 | 53.57550 | -10.33602 | 36138 ft | 456 kts | 281° |
| 2026-05-05 08:45 | 53.58716 | -10.44101 | 36135 ft | 456 kts | 281° |
| 2026-05-05 08:46 | 53.59870 | -10.54585 | 36143 ft | 455 kts | 281° |
| 2026-05-05 08:46 | 53.61013 | -10.65053 | 36146 ft | 454 kts | 281° |
| 2026-05-05 08:47 | 53.62109 | -10.75183 | 36143 ft | 454 kts | 281° |
| 2026-05-05 08:47 | 53.63235 | -10.85667 | 36148 ft | 454 kts | 281° |
| 2026-05-05 08:48 | 53.64350 | -10.96151 | 36149 ft | 454 kts | 281° |
| 2026-05-05 08:48 | 53.65456 | -11.06636 | 36148 ft | 455 kts | 281° |
| 2026-05-05 08:49 | 53.66556 | -11.17161 | 36153 ft | 455 kts | 281° |
| 2026-05-05 08:49 | 53.67645 | -11.27670 | 36152 ft | 456 kts | 281° |
| 2026-05-05 08:50 | 53.68727 | -11.38207 | 36156 ft | 456 kts | 280° |
| 2026-05-05 08:50 | 53.69792 | -11.48678 | 36161 ft | 456 kts | 280° |
| 2026-05-05 08:51 | 53.70856 | -11.59221 | 36160 ft | 456 kts | 280° |
| 2026-05-05 08:51 | 53.71911 | -11.69790 | 36162 ft | 456 kts | 280° |
| 2026-05-05 08:52 | 53.72917 | -11.79951 | 36161 ft | 456 kts | 280° |
| 2026-05-05 08:52 | 53.73779 | -11.88736 | 36162 ft | 456 kts | 279° |
| 2026-05-05 08:53 | 53.74809 | -11.99323 | 36171 ft | 456 kts | 279° |
| 2026-05-05 08:53 | 53.75829 | -12.09901 | 36163 ft | 456 kts | 279° |
| 2026-05-05 08:54 | 53.76840 | -12.20490 | 36175 ft | 456 kts | 279° |
| 2026-05-05 08:54 | 53.77840 | -12.31076 | 36171 ft | 456 kts | 279° |
| 2026-05-05 08:55 | 53.78832 | -12.41672 | 36181 ft | 456 kts | 279° |
| 2026-05-05 08:55 | 53.79786 | -12.51970 | 36178 ft | 456 kts | 279° |
| 2026-05-05 08:56 | 53.80758 | -12.62565 | 36181 ft | 456 kts | 279° |
| 2026-05-05 08:56 | 53.81679 | -12.72700 | 36186 ft | 455 kts | 279° |
| 2026-05-05 08:57 | 53.82632 | -12.83293 | 36184 ft | 455 kts | 279° |
| 2026-05-05 08:57 | 53.83576 | -12.93891 | 36182 ft | 455 kts | 279° |
| 2026-05-05 08:58 | 53.84509 | -13.04476 | 36183 ft | 454 kts | 279° |
| 2026-05-05 08:58 | 53.85432 | -13.15061 | 36187 ft | 454 kts | 279° |
| 2026-05-05 08:59 | 53.86345 | -13.25646 | 36188 ft | 453 kts | 279° |
| 2026-05-05 08:59 | 53.87245 | -13.36192 | 36190 ft | 453 kts | 279° |
| 2026-05-05 09:00 | 53.88137 | -13.46750 | 36191 ft | 452 kts | 279° |
| 2026-05-05 09:00 | 53.89018 | -13.57292 | 36203 ft | 452 kts | 279° |
| 2026-05-05 09:01 | 53.89890 | -13.67843 | 36200 ft | 452 kts | 278° |
| 2026-05-05 09:01 | 53.90746 | -13.78327 | 36198 ft | 452 kts | 278° |
| 2026-05-05 09:02 | 53.91599 | -13.88873 | 36199 ft | 451 kts | 278° |
| 2026-05-05 09:02 | 53.92443 | -13.99440 | 36203 ft | 451 kts | 278° |
| 2026-05-05 09:03 | 53.93277 | -14.09991 | 36205 ft | 451 kts | 278° |
| 2026-05-05 09:03 | 53.94101 | -14.20551 | 36210 ft | 451 kts | 278° |
| 2026-05-05 09:04 | 53.94917 | -14.31118 | 36204 ft | 451 kts | 278° |
| 2026-05-05 09:04 | 53.95723 | -14.41688 | 36209 ft | 451 kts | 278° |
| 2026-05-05 09:05 | 53.96520 | -14.52252 | 36209 ft | 451 kts | 278° |
| 2026-05-05 09:05 | 53.97307 | -14.62827 | 36205 ft | 451 kts | 278° |
| 2026-05-05 09:06 | 53.98081 | -14.73340 | 36215 ft | 451 kts | 277° |
| 2026-05-05 09:06 | 53.98851 | -14.83929 | 36214 ft | 451 kts | 277° |
| 2026-05-05 09:07 | 53.99616 | -14.94508 | 36208 ft | 451 kts | 278° |
| 2026-05-05 09:07 | 54.01034 | -15.04866 | 36214 ft | 450 kts | 289° |
| 2026-05-05 09:08 | 54.03273 | -15.14824 | 36221 ft | 450 kts | 291° |
| 2026-05-05 09:08 | 54.05537 | -15.24766 | 36225 ft | 451 kts | 291° |
| 2026-05-05 09:09 | 54.07779 | -15.34745 | 36215 ft | 451 kts | 290° |
| 2026-05-05 09:09 | 54.09988 | -15.44691 | 36214 ft | 452 kts | 290° |
| 2026-05-05 09:10 | 54.12200 | -15.54715 | 36217 ft | 452 kts | 290° |
| 2026-05-05 09:10 | 54.14403 | -15.64752 | 36224 ft | 452 kts | 290° |
| 2026-05-05 09:11 | 54.16602 | -15.74818 | 36224 ft | 452 kts | 290° |
| 2026-05-05 09:11 | 54.18791 | -15.84883 | 36223 ft | 452 kts | 290° |
| 2026-05-05 09:12 | 54.20972 | -15.94962 | 36237 ft | 452 kts | 290° |
| 2026-05-05 09:12 | 54.23131 | -16.04987 | 36227 ft | 452 kts | 290° |
| 2026-05-05 09:13 | 54.25299 | -16.15102 | 36220 ft | 452 kts | 289° |
| 2026-05-05 09:13 | 54.27455 | -16.25214 | 36232 ft | 452 kts | 289° |
| 2026-05-05 09:14 | 54.29603 | -16.35338 | 36230 ft | 452 kts | 289° |
| 2026-05-05 09:14 | 54.31742 | -16.45471 | 36231 ft | 453 kts | 289° |
| 2026-05-05 09:15 | 54.33873 | -16.55618 | 36235 ft | 453 kts | 289° |
| 2026-05-05 09:15 | 54.35994 | -16.65763 | 36236 ft | 453 kts | 289° |
| 2026-05-05 09:16 | 54.38098 | -16.75882 | 36236 ft | 453 kts | 289° |
| 2026-05-05 09:16 | 54.40206 | -16.86071 | 36232 ft | 453 kts | 289° |
| 2026-05-05 09:17 | 54.42307 | -16.96279 | 36234 ft | 453 kts | 289° |
| 2026-05-05 09:17 | 54.44398 | -17.06490 | 36235 ft | 453 kts | 289° |
| 2026-05-05 09:18 | 54.46255 | -17.15605 | 36239 ft | 453 kts | 289° |
| 2026-05-05 09:18 | 54.48026 | -17.24334 | 36239 ft | 453 kts | 289° |
| 2026-05-05 09:19 | 54.50094 | -17.34578 | 36238 ft | 453 kts | 289° |
| 2026-05-05 09:19 | 54.52152 | -17.44823 | 36244 ft | 453 kts | 288° |
| 2026-05-05 09:20 | 54.54206 | -17.55102 | 36242 ft | 453 kts | 288° |
| 2026-05-05 09:20 | 54.56250 | -17.65387 | 36239 ft | 454 kts | 288° |
| 2026-05-05 09:21 | 54.58286 | -17.75684 | 36244 ft | 454 kts | 288° |
| 2026-05-05 09:21 | 54.60317 | -17.86009 | 36247 ft | 454 kts | 288° |
| 2026-05-05 09:22 | 54.62324 | -17.96269 | 36249 ft | 455 kts | 288° |
| 2026-05-05 09:22 | 54.64338 | -18.06620 | 36248 ft | 455 kts | 288° |
| 2026-05-05 09:23 | 54.66343 | -18.16983 | 36246 ft | 455 kts | 288° |
| 2026-05-05 09:23 | 54.68339 | -18.27348 | 36252 ft | 455 kts | 288° |
| 2026-05-05 09:24 | 54.70330 | -18.37751 | 36253 ft | 455 kts | 288° |
| 2026-05-05 09:24 | 54.72309 | -18.48146 | 36249 ft | 455 kts | 288° |
| 2026-05-05 09:25 | 54.74282 | -18.58563 | 36251 ft | 455 kts | 288° |
| 2026-05-05 09:25 | 54.76244 | -18.68982 | 36251 ft | 455 kts | 287° |
| 2026-05-05 09:26 | 54.78198 | -18.79416 | 36246 ft | 455 kts | 287° |
| 2026-05-05 09:26 | 54.80129 | -18.89782 | 36254 ft | 455 kts | 287° |
| 2026-05-05 09:27 | 54.82064 | -19.00234 | 36266 ft | 455 kts | 287° |
| 2026-05-05 09:27 | 54.83993 | -19.10708 | 36258 ft | 456 kts | 287° |
| 2026-05-05 09:28 | 54.85916 | -19.21206 | 36257 ft | 456 kts | 287° |
| 2026-05-05 09:28 | 54.87831 | -19.31723 | 36261 ft | 457 kts | 287° |
| 2026-05-05 09:29 | 54.89737 | -19.42250 | 36250 ft | 457 kts | 287° |
| 2026-05-05 09:29 | 54.91636 | -19.52796 | 36260 ft | 457 kts | 287° |
| 2026-05-05 09:30 | 54.93529 | -19.63373 | 36260 ft | 457 kts | 287° |
| 2026-05-05 09:30 | 54.95398 | -19.73875 | 36263 ft | 457 kts | 287° |
| 2026-05-05 09:31 | 54.97270 | -19.84455 | 36267 ft | 458 kts | 287° |
| 2026-05-05 09:31 | 54.99135 | -19.95068 | 36264 ft | 458 kts | 286° |
| 2026-05-05 09:32 | 55.00323 | -20.05963 | 36258 ft | 459 kts | 275° |
| 2026-05-05 09:32 | 55.00738 | -20.17058 | 36262 ft | 459 kts | 274° |
| 2026-05-05 09:33 | 55.01135 | -20.28176 | 36272 ft | 460 kts | 274° |
| 2026-05-05 09:33 | 55.01544 | -20.39293 | 36264 ft | 460 kts | 274° |
| 2026-05-05 09:34 | 55.01958 | -20.50427 | 36266 ft | 460 kts | 274° |
| 2026-05-05 09:34 | 55.02365 | -20.61569 | 36267 ft | 461 kts | 274° |
| 2026-05-05 09:35 | 55.02762 | -20.72708 | 36257 ft | 461 kts | 274° |
| 2026-05-05 09:35 | 55.03336 | -20.89362 | 36275 ft | 461 kts | 274° |
| 2026-05-05 09:36 | 55.03707 | -21.00524 | 36270 ft | 461 kts | 274° |
| 2026-05-05 09:36 | 55.04068 | -21.11697 | 36278 ft | 462 kts | 274° |
| 2026-05-05 09:37 | 55.04420 | -21.22879 | 36273 ft | 462 kts | 274° |
| 2026-05-05 09:37 | 55.04761 | -21.34073 | 36272 ft | 462 kts | 274° |
| 2026-05-05 09:38 | 55.05092 | -21.45279 | 36282 ft | 463 kts | 274° |
| 2026-05-05 09:38 | 55.05414 | -21.56498 | 36280 ft | 463 kts | 274° |
| 2026-05-05 09:39 | 55.05725 | -21.67724 | 36279 ft | 464 kts | 274° |
| 2026-05-05 09:39 | 55.06026 | -21.78958 | 36283 ft | 464 kts | 274° |
| 2026-05-05 09:40 | 55.06269 | -21.88313 | 36267 ft | 464 kts | 274° |
| 2026-05-05 09:40 | 55.06551 | -21.99557 | 36285 ft | 464 kts | 274° |
| 2026-05-05 09:41 | 55.06823 | -22.10809 | 36282 ft | 464 kts | 274° |
| 2026-05-05 09:41 | 55.07085 | -22.22058 | 36290 ft | 464 kts | 274° |
| 2026-05-05 09:42 | 55.07335 | -22.33256 | 36284 ft | 464 kts | 274° |
| 2026-05-05 09:42 | 55.07576 | -22.44505 | 36286 ft | 464 kts | 274° |
| 2026-05-05 09:43 | 55.07806 | -22.55768 | 36284 ft | 464 kts | 274° |
| 2026-05-05 09:43 | 55.08026 | -22.67013 | 36288 ft | 464 kts | 274° |
| 2026-05-05 09:44 | 55.08236 | -22.78267 | 36287 ft | 464 kts | 274° |
| 2026-05-05 09:44 | 55.08435 | -22.89513 | 36288 ft | 464 kts | 274° |
| 2026-05-05 09:45 | 55.08625 | -23.00777 | 36291 ft | 464 kts | 273° |
| 2026-05-05 09:45 | 55.08803 | -23.12029 | 36291 ft | 464 kts | 273° |
| 2026-05-05 09:46 | 55.08972 | -23.23300 | 36294 ft | 464 kts | 273° |
| 2026-05-05 09:46 | 55.09129 | -23.34552 | 36293 ft | 464 kts | 273° |
| 2026-05-05 09:47 | 55.09277 | -23.45816 | 36293 ft | 464 kts | 273° |
| 2026-05-05 09:47 | 55.09414 | -23.57083 | 36295 ft | 464 kts | 273° |
| 2026-05-05 09:48 | 55.09540 | -23.68337 | 36289 ft | 464 kts | 273° |
| 2026-05-05 09:48 | 55.09657 | -23.79589 | 36300 ft | 463 kts | 273° |
| 2026-05-05 09:49 | 55.09762 | -23.90755 | 36302 ft | 463 kts | 273° |
| 2026-05-05 09:49 | 55.09858 | -24.02080 | 36304 ft | 463 kts | 273° |
| 2026-05-05 09:50 | 55.09942 | -24.13244 | 36304 ft | 463 kts | 273° |
| 2026-05-05 09:50 | 55.10017 | -24.24482 | 36304 ft | 463 kts | 273° |
| 2026-05-05 09:51 | 55.10081 | -24.35724 | 36298 ft | 463 kts | 273° |
| 2026-05-05 09:51 | 55.10136 | -24.46960 | 36309 ft | 462 kts | 273° |
| 2026-05-05 09:52 | 55.10179 | -24.58203 | 36307 ft | 463 kts | 272° |
| 2026-05-05 09:52 | 55.10213 | -24.69367 | 36305 ft | 463 kts | 272° |
| 2026-05-05 09:53 | 55.10236 | -24.80598 | 36309 ft | 463 kts | 272° |
| 2026-05-05 09:53 | 55.10248 | -24.91836 | 36298 ft | 463 kts | 272° |
| 2026-05-05 09:54 | 55.10250 | -25.03081 | 36309 ft | 462 kts | 272° |
| 2026-05-05 09:54 | 55.10243 | -25.14128 | 36315 ft | 462 kts | 272° |
| 2026-05-05 09:55 | 55.10225 | -25.25364 | 36315 ft | 463 kts | 272° |
| 2026-05-05 09:55 | 55.10196 | -25.36597 | 36318 ft | 463 kts | 272° |
| 2026-05-05 09:56 | 55.10158 | -25.47828 | 36293 ft | 463 kts | 272° |
| 2026-05-05 09:56 | 55.10108 | -25.59067 | 36317 ft | 462 kts | 272° |
| 2026-05-05 09:57 | 55.10049 | -25.70307 | 36322 ft | 463 kts | 272° |
| 2026-05-05 09:57 | 55.09979 | -25.81554 | 36323 ft | 463 kts | 272° |
| 2026-05-05 09:58 | 55.09899 | -25.92814 | 36319 ft | 464 kts | 272° |
| 2026-05-05 09:58 | 55.09809 | -26.03997 | 36321 ft | 464 kts | 272° |
| 2026-05-05 09:59 | 55.09707 | -26.15274 | 36333 ft | 464 kts | 272° |
| 2026-05-05 09:59 | 55.09596 | -26.26546 | 36316 ft | 465 kts | 272° |
| 2026-05-05 10:00 | 55.09474 | -26.37848 | 36334 ft | 466 kts | 272° |
| 2026-05-05 10:00 | 55.09341 | -26.49164 | 36325 ft | 466 kts | 272° |
| 2026-05-05 10:01 | 55.09197 | -26.60499 | 36326 ft | 467 kts | 272° |
| 2026-05-05 10:01 | 55.09042 | -26.71838 | 36318 ft | 467 kts | 272° |
| 2026-05-05 10:02 | 55.08877 | -26.83169 | 36326 ft | 467 kts | 272° |
| 2026-05-05 10:02 | 55.08702 | -26.94499 | 36337 ft | 467 kts | 272° |
| 2026-05-05 10:03 | 55.08516 | -27.05830 | 36332 ft | 467 kts | 272° |
| 2026-05-05 10:03 | 55.08321 | -27.17095 | 36330 ft | 467 kts | 272° |
| 2026-05-05 10:04 | 55.08114 | -27.28448 | 36302 ft | 467 kts | 272° |
| 2026-05-05 10:04 | 55.07896 | -27.39764 | 36323 ft | 466 kts | 272° |
| 2026-05-05 10:05 | 55.07669 | -27.51072 | 36337 ft | 466 kts | 272° |
| 2026-05-05 10:05 | 55.07431 | -27.62386 | 36343 ft | 466 kts | 272° |
| 2026-05-05 10:06 | 55.07183 | -27.73702 | 36343 ft | 467 kts | 272° |
| 2026-05-05 10:06 | 55.06924 | -27.85026 | 36341 ft | 467 kts | 272° |
| 2026-05-05 10:07 | 55.06653 | -27.96349 | 36333 ft | 467 kts | 272° |
| 2026-05-05 10:07 | 55.06375 | -28.07586 | 36346 ft | 467 kts | 272° |
| 2026-05-05 10:08 | 55.06085 | -28.18904 | 36345 ft | 467 kts | 272° |
| 2026-05-05 10:08 | 55.05783 | -28.30222 | 36343 ft | 467 kts | 271° |
| 2026-05-05 10:09 | 55.05472 | -28.41536 | 36343 ft | 467 kts | 271° |
| 2026-05-05 10:09 | 55.05150 | -28.52846 | 36325 ft | 467 kts | 271° |
| 2026-05-05 10:10 | 55.04817 | -28.64136 | 36341 ft | 466 kts | 271° |
| 2026-05-05 10:10 | 55.04476 | -28.75383 | 36343 ft | 466 kts | 272° |
| 2026-05-05 10:11 | 55.04123 | -28.86684 | 36350 ft | 467 kts | 271° |
| 2026-05-05 10:11 | 55.03759 | -28.98005 | 36351 ft | 468 kts | 271° |
| 2026-05-05 10:12 | 55.03384 | -29.09324 | 36350 ft | 468 kts | 271° |
| 2026-05-05 10:12 | 55.02998 | -29.20658 | 36349 ft | 468 kts | 271° |
| 2026-05-05 10:13 | 55.02600 | -29.32001 | 36354 ft | 469 kts | 271° |
| 2026-05-05 10:13 | 55.02193 | -29.43342 | 36353 ft | 469 kts | 271° |
| 2026-05-05 10:14 | 55.01775 | -29.54682 | 36355 ft | 469 kts | 271° |
| 2026-05-05 10:14 | 55.01347 | -29.66004 | 36356 ft | 469 kts | 271° |
| 2026-05-05 10:15 | 55.00908 | -29.77331 | 36354 ft | 468 kts | 271° |
| 2026-05-05 10:15 | 55.00461 | -29.88645 | 36353 ft | 467 kts | 271° |
| 2026-05-05 10:16 | 55.00048 | -29.99937 | 36354 ft | 465 kts | 274° |
| 2026-05-05 10:16 | 55.00369 | -30.11037 | 36363 ft | 461 kts | 279° |
| 2026-05-05 10:17 | 55.00855 | -30.22200 | 36356 ft | 462 kts | 279° |
| 2026-05-05 10:17 | 55.01315 | -30.33357 | 36321 ft | 462 kts | 279° |
| 2026-05-05 10:18 | 55.01745 | -30.44530 | 36350 ft | 461 kts | 278° |
| 2026-05-05 10:18 | 55.02157 | -30.55680 | 36354 ft | 461 kts | 278° |
| 2026-05-05 10:19 | 55.02555 | -30.66749 | 36355 ft | 460 kts | 278° |
| 2026-05-05 10:19 | 55.02945 | -30.77879 | 36356 ft | 460 kts | 278° |
| 2026-05-05 10:20 | 55.03326 | -30.89014 | 36357 ft | 460 kts | 278° |
| 2026-05-05 10:20 | 55.03697 | -31.00151 | 36320 ft | 460 kts | 278° |
| 2026-05-05 10:21 | 55.04056 | -31.11256 | 36343 ft | 458 kts | 278° |
| 2026-05-05 10:21 | 55.04404 | -31.22336 | 36350 ft | 457 kts | 278° |
| 2026-05-05 10:22 | 55.04742 | -31.33396 | 36358 ft | 457 kts | 278° |
| 2026-05-05 10:22 | 55.05070 | -31.44454 | 36348 ft | 456 kts | 277° |
| 2026-05-05 10:23 | 55.05388 | -31.55509 | 36358 ft | 456 kts | 277° |
| 2026-05-05 10:23 | 55.05695 | -31.66560 | 36325 ft | 456 kts | 277° |
| 2026-05-05 10:24 | 55.05992 | -31.77588 | 36341 ft | 455 kts | 277° |
| 2026-05-05 10:24 | 55.06278 | -31.88613 | 36337 ft | 454 kts | 277° |
| 2026-05-05 10:25 | 55.06554 | -31.99606 | 36346 ft | 454 kts | 276° |
| 2026-05-05 10:25 | 55.06821 | -32.10615 | 36345 ft | 454 kts | 276° |
| 2026-05-05 10:26 | 55.07075 | -32.21542 | 36343 ft | 454 kts | 276° |
| 2026-05-05 10:26 | 55.07327 | -32.32674 | 36323 ft | 464 kts | 276° |
| 2026-05-05 10:27 | 55.07573 | -32.44013 | 36348 ft | 471 kts | 275° |
| 2026-05-05 10:27 | 55.07807 | -32.55496 | 36344 ft | 474 kts | 275° |
| 2026-05-05 10:28 | 55.07995 | -32.65149 | 36333 ft | 476 kts | 275° |
| 2026-05-05 10:28 | 55.08208 | -32.76613 | 36332 ft | 475 kts | 275° |
| 2026-05-05 10:29 | 55.08413 | -32.88124 | 36324 ft | 474 kts | 275° |
| 2026-05-05 10:29 | 55.08607 | -32.99603 | 36303 ft | 472 kts | 274° |
| 2026-05-05 10:30 | 55.08790 | -33.11031 | 36326 ft | 470 kts | 274° |
| 2026-05-05 10:30 | 55.08961 | -33.22447 | 36325 ft | 470 kts | 274° |
| 2026-05-05 10:31 | 55.09121 | -33.33840 | 36326 ft | 469 kts | 274° |
| 2026-05-05 10:31 | 55.09271 | -33.45235 | 36319 ft | 469 kts | 274° |
| 2026-05-05 10:32 | 55.09410 | -33.56556 | 36319 ft | 469 kts | 274° |
| 2026-05-05 10:32 | 55.09539 | -33.67954 | 36296 ft | 470 kts | 273° |
| 2026-05-05 10:33 | 55.09657 | -33.79356 | 36317 ft | 470 kts | 272° |
| 2026-05-05 10:33 | 55.09764 | -33.90785 | 36317 ft | 471 kts | 272° |
| 2026-05-05 10:34 | 55.09861 | -34.02220 | 36300 ft | 472 kts | 272° |
| 2026-05-05 10:34 | 55.09948 | -34.13690 | 36303 ft | 472 kts | 272° |
| 2026-05-05 10:35 | 55.10023 | -34.25160 | 36309 ft | 473 kts | 272° |
| 2026-05-05 10:35 | 55.10089 | -34.36646 | 36283 ft | 473 kts | 271° |
| 2026-05-05 10:36 | 55.10143 | -34.48148 | 36297 ft | 473 kts | 271° |
| 2026-05-05 10:36 | 55.10186 | -34.59654 | 36297 ft | 474 kts | 271° |
| 2026-05-05 10:37 | 55.10219 | -34.71170 | 36292 ft | 474 kts | 271° |
| 2026-05-05 10:37 | 55.10241 | -34.82613 | 36293 ft | 475 kts | 271° |
| 2026-05-05 10:38 | 55.10251 | -34.94166 | 36293 ft | 476 kts | 271° |
| 2026-05-05 10:38 | 55.10252 | -35.05759 | 36280 ft | 478 kts | 270° |
| 2026-05-05 10:39 | 55.10241 | -35.17391 | 36282 ft | 480 kts | 270° |
| 2026-05-05 10:39 | 55.10218 | -35.29074 | 36275 ft | 482 kts | 270° |
| 2026-05-05 10:40 | 55.10185 | -35.40722 | 36286 ft | 482 kts | 270° |
| 2026-05-05 10:40 | 55.10140 | -35.52434 | 36278 ft | 482 kts | 269° |
| 2026-05-05 10:41 | 55.10084 | -35.64126 | 36274 ft | 481 kts | 269° |
| 2026-05-05 10:41 | 55.10018 | -35.75800 | 36269 ft | 481 kts | 269° |
| 2026-05-05 10:42 | 55.09896 | -35.93359 | 36267 ft | 483 kts | 269° |
| 2026-05-05 10:43 | 55.09800 | -36.05107 | 36248 ft | 485 kts | 269° |
| 2026-05-05 10:43 | 55.09693 | -36.16889 | 36253 ft | 485 kts | 269° |
| 2026-05-05 10:44 | 55.09575 | -36.28673 | 36241 ft | 485 kts | 268° |
| 2026-05-05 10:44 | 55.09446 | -36.40464 | 36227 ft | 487 kts | 267° |
| 2026-05-05 10:45 | 55.09302 | -36.52327 | 36248 ft | 489 kts | 268° |
| 2026-05-05 10:45 | 55.09149 | -36.64162 | 36237 ft | 492 kts | 267° |
| 2026-05-05 10:46 | 55.08981 | -36.76145 | 36234 ft | 494 kts | 267° |
| 2026-05-05 10:46 | 55.08802 | -36.88181 | 36215 ft | 496 kts | 266° |
| 2026-05-05 10:47 | 55.08610 | -37.00239 | 36231 ft | 497 kts | 266° |
| 2026-05-05 10:47 | 55.08407 | -37.12320 | 36220 ft | 500 kts | 267° |
| 2026-05-05 10:48 | 55.08189 | -37.24492 | 36204 ft | 502 kts | 266° |
| 2026-05-05 10:48 | 55.07960 | -37.36589 | 36202 ft | 503 kts | 266° |
| 2026-05-05 10:49 | 55.07717 | -37.48801 | 36177 ft | 503 kts | 265° |
| 2026-05-05 10:49 | 55.07462 | -37.60965 | 36196 ft | 501 kts | 266° |
| 2026-05-05 10:50 | 55.07193 | -37.73218 | 36184 ft | 503 kts | 265° |
| 2026-05-05 10:50 | 55.06916 | -37.85367 | 36183 ft | 506 kts | 265° |
| 2026-05-05 10:51 | 55.06622 | -37.97660 | 36168 ft | 508 kts | 265° |
| 2026-05-05 10:51 | 55.06315 | -38.10005 | 36169 ft | 510 kts | 265° |
| 2026-05-05 10:52 | 55.05994 | -38.22375 | 36155 ft | 510 kts | 265° |
| 2026-05-05 10:52 | 55.05661 | -38.34743 | 36172 ft | 511 kts | 264° |
| 2026-05-05 10:53 | 55.05314 | -38.47143 | 36143 ft | 512 kts | 264° |
| 2026-05-05 10:53 | 55.04954 | -38.59554 | 36147 ft | 513 kts | 264° |
| 2026-05-05 10:54 | 55.04580 | -38.71996 | 36133 ft | 514 kts | 264° |
| 2026-05-05 10:54 | 55.04194 | -38.84448 | 36126 ft | 515 kts | 264° |
| 2026-05-05 10:55 | 55.03797 | -38.96850 | 36127 ft | 515 kts | 263° |
| 2026-05-05 10:55 | 55.03383 | -39.09351 | 36114 ft | 518 kts | 263° |
| 2026-05-05 10:56 | 55.02954 | -39.21911 | 36115 ft | 519 kts | 263° |
| 2026-05-05 10:56 | 55.02512 | -39.34493 | 36101 ft | 521 kts | 263° |
| 2026-05-05 10:57 | 55.02056 | -39.47092 | 36094 ft | 521 kts | 263° |
| 2026-05-05 10:57 | 55.01587 | -39.59705 | 36080 ft | 521 kts | 263° |
| 2026-05-05 10:58 | 55.01103 | -39.72329 | 36089 ft | 522 kts | 262° |
| 2026-05-05 10:58 | 55.00608 | -39.84942 | 36070 ft | 522 kts | 262° |
| 2026-05-05 10:59 | 55.00102 | -39.97547 | 36066 ft | 521 kts | 262° |
| 2026-05-05 10:59 | 54.99492 | -40.10121 | 36062 ft | 520 kts | 260° |
| 2026-05-05 11:00 | 54.98731 | -40.22633 | 36062 ft | 519 kts | 259° |
| 2026-05-05 11:00 | 54.97957 | -40.35053 | 36075 ft | 520 kts | 259° |
| 2026-05-05 11:01 | 54.97185 | -40.47606 | 36062 ft | 521 kts | 259° |
| 2026-05-05 11:01 | 54.96414 | -40.60154 | 36043 ft | 522 kts | 259° |
| 2026-05-05 11:02 | 54.95630 | -40.72736 | 36043 ft | 523 kts | 259° |
| 2026-05-05 11:02 | 54.94829 | -40.85344 | 36029 ft | 524 kts | 259° |
| 2026-05-05 11:03 | 54.94015 | -40.97943 | 36077 ft | 524 kts | 258° |
| 2026-05-05 11:03 | 54.93186 | -41.10564 | 36031 ft | 526 kts | 258° |
| 2026-05-05 11:04 | 54.92343 | -41.23188 | 36025 ft | 526 kts | 258° |
| 2026-05-05 11:04 | 54.91486 | -41.35818 | 36018 ft | 526 kts | 258° |
| 2026-05-05 11:05 | 54.90621 | -41.48373 | 36027 ft | 526 kts | 258° |
| 2026-05-05 11:05 | 54.89739 | -41.60978 | 36034 ft | 526 kts | 258° |
| 2026-05-05 11:06 | 54.88842 | -41.73605 | 36021 ft | 527 kts | 257° |
| 2026-05-05 11:06 | 54.87931 | -41.86236 | 36001 ft | 527 kts | 257° |
| 2026-05-05 11:07 | 54.87009 | -41.98838 | 36008 ft | 526 kts | 257° |
| 2026-05-05 11:07 | 54.86075 | -42.11427 | 35999 ft | 525 kts | 257° |
| 2026-05-05 11:08 | 54.85127 | -42.24004 | 36008 ft | 525 kts | 257° |
| 2026-05-05 11:08 | 54.84175 | -42.36468 | 36002 ft | 525 kts | 257° |
| 2026-05-05 11:09 | 54.83202 | -42.49036 | 36000 ft | 525 kts | 256° |
| 2026-05-05 11:09 | 54.82216 | -42.61588 | 35998 ft | 526 kts | 256° |
| 2026-05-05 11:10 | 54.81215 | -42.74167 | 35995 ft | 526 kts | 256° |
| 2026-05-05 11:10 | 54.80200 | -42.86745 | 35985 ft | 527 kts | 256° |
| 2026-05-05 11:11 | 54.79171 | -42.99326 | 35985 ft | 527 kts | 256° |
| 2026-05-05 11:11 | 54.78134 | -43.11874 | 35980 ft | 526 kts | 256° |
| 2026-05-05 11:12 | 54.77084 | -43.24401 | 35973 ft | 524 kts | 255° |
| 2026-05-05 11:12 | 54.76023 | -43.36882 | 35974 ft | 523 kts | 255° |
| 2026-05-05 11:13 | 54.74950 | -43.49352 | 35974 ft | 523 kts | 255° |
| 2026-05-05 11:13 | 54.74048 | -43.59706 | 35974 ft | 524 kts | 255° |
| 2026-05-05 11:14 | 54.72773 | -43.74187 | 35956 ft | 523 kts | 255° |
| 2026-05-05 11:14 | 54.71665 | -43.86610 | 35954 ft | 522 kts | 255° |
| 2026-05-05 11:15 | 54.70545 | -43.99014 | 35944 ft | 522 kts | 255° |
| 2026-05-05 11:15 | 54.69596 | -44.09409 | 35940 ft | 522 kts | 255° |
| 2026-05-05 11:16 | 54.68459 | -44.21721 | 35955 ft | 522 kts | 255° |
| 2026-05-05 11:16 | 54.67306 | -44.34076 | 35934 ft | 520 kts | 255° |
| 2026-05-05 11:17 | 54.66143 | -44.46400 | 35930 ft | 519 kts | 255° |
| 2026-05-05 11:17 | 54.64967 | -44.58715 | 35920 ft | 519 kts | 255° |
| 2026-05-05 11:18 | 54.63778 | -44.71017 | 35910 ft | 519 kts | 255° |
| 2026-05-05 11:18 | 54.62579 | -44.83305 | 35926 ft | 519 kts | 255° |
| 2026-05-05 11:19 | 54.61374 | -44.95510 | 35901 ft | 518 kts | 255° |
| 2026-05-05 11:19 | 54.60151 | -45.07774 | 35899 ft | 517 kts | 255° |
| 2026-05-05 11:20 | 54.58920 | -45.19991 | 35876 ft | 516 kts | 255° |
| 2026-05-05 11:20 | 54.57679 | -45.32170 | 35881 ft | 516 kts | 255° |
| 2026-05-05 11:21 | 54.56426 | -45.44335 | 35907 ft | 516 kts | 255° |
| 2026-05-05 11:21 | 54.55158 | -45.56519 | 35870 ft | 516 kts | 255° |
| 2026-05-05 11:22 | 54.53879 | -45.68687 | 35860 ft | 516 kts | 255° |
| 2026-05-05 11:22 | 54.52589 | -45.80845 | 35859 ft | 515 kts | 255° |
| 2026-05-05 11:23 | 54.51288 | -45.92974 | 35843 ft | 515 kts | 254° |
| 2026-05-05 11:23 | 54.49982 | -46.05029 | 35877 ft | 515 kts | 255° |
| 2026-05-05 11:24 | 54.48649 | -46.17222 | 35839 ft | 515 kts | 254° |
| 2026-05-05 11:24 | 54.47322 | -46.29239 | 35834 ft | 515 kts | 254° |
| 2026-05-05 11:25 | 54.45965 | -46.41403 | 35822 ft | 515 kts | 254° |
| 2026-05-05 11:25 | 54.44612 | -46.53423 | 35818 ft | 515 kts | 254° |
| 2026-05-05 11:26 | 54.43268 | -46.65248 | 35834 ft | 515 kts | 254° |
| 2026-05-05 11:26 | 54.41881 | -46.77340 | 35807 ft | 515 kts | 254° |
| 2026-05-05 11:27 | 54.40485 | -46.89400 | 35797 ft | 515 kts | 254° |
| 2026-05-05 11:27 | 54.39079 | -47.01433 | 35794 ft | 514 kts | 254° |
| 2026-05-05 11:28 | 54.37675 | -47.13339 | 35781 ft | 513 kts | 253° |
| 2026-05-05 11:28 | 54.36289 | -47.24987 | 35788 ft | 513 kts | 253° |
| 2026-05-05 11:29 | 54.34849 | -47.36977 | 35767 ft | 513 kts | 253° |
| 2026-05-05 11:29 | 54.33399 | -47.48952 | 35746 ft | 513 kts | 253° |
| 2026-05-05 11:30 | 54.31937 | -47.60919 | 35749 ft | 512 kts | 253° |
| 2026-05-05 11:30 | 54.30474 | -47.72789 | 35732 ft | 512 kts | 253° |
| 2026-05-05 11:31 | 54.28984 | -47.84776 | 35744 ft | 512 kts | 253° |
| 2026-05-05 11:31 | 54.27499 | -47.96609 | 35734 ft | 511 kts | 253° |
| 2026-05-05 11:32 | 54.25997 | -48.08488 | 35723 ft | 510 kts | 253° |
| 2026-05-05 11:32 | 54.24486 | -48.20337 | 35732 ft | 509 kts | 253° |
| 2026-05-05 11:33 | 54.22965 | -48.32163 | 35721 ft | 509 kts | 253° |
| 2026-05-05 11:33 | 54.21432 | -48.43977 | 35705 ft | 509 kts | 253° |
| 2026-05-05 11:34 | 54.19889 | -48.55775 | 35707 ft | 509 kts | 253° |
| 2026-05-05 11:34 | 54.18333 | -48.67574 | 35690 ft | 509 kts | 253° |
| 2026-05-05 11:35 | 54.16763 | -48.79388 | 35694 ft | 510 kts | 252° |
| 2026-05-05 11:35 | 54.15192 | -48.91110 | 35680 ft | 510 kts | 252° |
| 2026-05-05 11:36 | 54.13599 | -49.02904 | 35671 ft | 510 kts | 252° |
| 2026-05-05 11:36 | 54.11994 | -49.14693 | 35683 ft | 510 kts | 252° |
| 2026-05-05 11:37 | 54.10379 | -49.26461 | 35669 ft | 510 kts | 252° |
| 2026-05-05 11:37 | 54.08754 | -49.38212 | 35638 ft | 509 kts | 252° |
| 2026-05-05 11:38 | 54.07120 | -49.49937 | 35638 ft | 508 kts | 252° |
| 2026-05-05 11:38 | 54.05479 | -49.61617 | 35630 ft | 508 kts | 252° |
| 2026-05-05 11:39 | 54.03836 | -49.73223 | 35660 ft | 507 kts | 252° |
| 2026-05-05 11:39 | 54.02176 | -49.84868 | 35631 ft | 506 kts | 252° |
| 2026-05-05 11:40 | 54.00506 | -49.96489 | 35622 ft | 505 kts | 252° |
| 2026-05-05 11:40 | 53.98257 | -50.07696 | 35619 ft | 499 kts | 243° |
| 2026-05-05 11:41 | 53.95569 | -50.18567 | 35612 ft | 499 kts | 243° |
| 2026-05-05 11:41 | 53.92876 | -50.29429 | 35621 ft | 499 kts | 243° |
| 2026-05-05 11:42 | 53.90202 | -50.40309 | 35599 ft | 499 kts | 244° |
| 2026-05-05 11:42 | 53.87536 | -50.51169 | 35583 ft | 499 kts | 244° |
| 2026-05-05 11:43 | 53.84863 | -50.62016 | 35578 ft | 498 kts | 243° |